sensor_id;sensor_type;location;lat;lon;timestamp;temperature;humidity
35613;DHT22;22054;51.646;7.078;2023-04-01T00:00:58;9.70;99.90
35613;DHT22;22054;51.646;7.078;2023-04-01T00:03:25;9.70;99.90
35613;DHT22;22054;51.646;7.078;2023-04-01T00:05:53;9.80;99.90
35613;DHT22;22054;51.646;7.078;2023-04-01T00:08:19;9.80;99.90
35613;DHT22;22054;51.646;7.078;2023-04-01T00:10:45;9.80;99.90
35613;DHT22;22054;51.646;7.078;2023-04-01T00:13:11;9.80;99.90
35613;DHT22;22054;51.646;7.078;2023-04-01T00:15:37;9.80;99.90
35613;DHT22;22054;51.646;7.078;2023-04-01T00:18:03;9.70;99.90
35613;DHT22;22054;51.646;7.078;2023-04-01T00:20:30;9.80;99.90
35613;DHT22;22054;51.646;7.078;2023-04-01T00:22:56;9.70;99.90
35613;DHT22;22054;51.646;7.078;2023-04-01T00:25:23;9.70;99.90
35613;DHT22;22054;51.646;7.078;2023-04-01T00:27:49;9.80;99.90
35613;DHT22;22054;51.646;7.078;2023-04-01T00:30:15;9.70;99.90
35613;DHT22;22054;51.646;7.078;2023-04-01T00:32:41;9.70;99.90
35613;DHT22;22054;51.646;7.078;2023-04-01T00:35:07;9.70;99.90
35613;DHT22;22054;51.646;7.078;2023-04-01T00:37:35;9.70;99.90
35613;DHT22;22054;51.646;7.078;2023-04-01T00:40:06;9.70;99.90
35613;DHT22;22054;51.646;7.078;2023-04-01T00:42:33;9.70;99.90
35613;DHT22;22054;51.646;7.078;2023-04-01T00:47:51;9.70;99.90
35613;DHT22;22054;51.646;7.078;2023-04-01T00:50:16;9.70;99.90
35613;DHT22;22054;51.646;7.078;2023-04-01T00:52:42;9.70;99.90
35613;DHT22;22054;51.646;7.078;2023-04-01T00:55:11;9.70;99.90
35613;DHT22;22054;51.646;7.078;2023-04-01T00:57:40;9.70;99.90
35613;DHT22;22054;51.646;7.078;2023-04-01T01:00:09;9.70;99.90
35613;DHT22;22054;51.646;7.078;2023-04-01T01:02:41;9.70;99.90
35613;DHT22;22054;51.646;7.078;2023-04-01T01:05:12;9.70;99.90
35613;DHT22;22054;51.646;7.078;2023-04-01T01:08:01;9.70;99.90
35613;DHT22;22054;51.646;7.078;2023-04-01T01:10:34;9.70;99.90
35613;DHT22;22054;51.646;7.078;2023-04-01T01:13:24;9.70;99.90
35613;DHT22;22054;51.646;7.078;2023-04-01T01:16:00;9.70;99.90
35613;DHT22;22054;51.646;7.078;2023-04-01T01:18:38;9.70;99.90
35613;DHT22;22054;51.646;7.078;2023-04-01T01:21:34;9.70;99.90
35613;DHT22;22054;51.646;7.078;2023-04-01T01:24:25;9.60;99.90
35613;DHT22;22054;51.646;7.078;2023-04-01T01:27:02;9.70;99.90
35613;DHT22;22054;51.646;7.078;2023-04-01T01:30:04;9.70;99.90
35613;DHT22;22054;51.646;7.078;2023-04-01T01:35:47;9.60;99.90
35613;DHT22;22054;51.646;7.078;2023-04-01T01:38:18;9.60;99.90
35613;DHT22;22054;51.646;7.078;2023-04-01T01:40:50;9.60;99.90
35613;DHT22;22054;51.646;7.078;2023-04-01T01:43:22;9.70;99.90
35613;DHT22;22054;51.646;7.078;2023-04-01T01:45:54;9.70;99.90
35613;DHT22;22054;51.646;7.078;2023-04-01T01:48:23;9.60;99.90
35613;DHT22;22054;51.646;7.078;2023-04-01T01:50:50;9.60;99.90
35613;DHT22;22054;51.646;7.078;2023-04-01T01:53:16;9.60;99.90
35613;DHT22;22054;51.646;7.078;2023-04-01T01:55:45;9.60;99.90
35613;DHT22;22054;51.646;7.078;2023-04-01T01:58:22;9.50;99.90
35613;DHT22;22054;51.646;7.078;2023-04-01T02:00:57;9.60;99.90
35613;DHT22;22054;51.646;7.078;2023-04-01T02:03:28;9.50;99.90
35613;DHT22;22054;51.646;7.078;2023-04-01T02:05:57;9.50;99.90
35613;DHT22;22054;51.646;7.078;2023-04-01T02:08:33;9.50;99.90
35613;DHT22;22054;51.646;7.078;2023-04-01T02:11:04;9.50;99.90
35613;DHT22;22054;51.646;7.078;2023-04-01T02:16:49;9.50;99.90
35613;DHT22;22054;51.646;7.078;2023-04-01T02:19:18;9.50;99.90
35613;DHT22;22054;51.646;7.078;2023-04-01T02:21:49;9.50;99.90
35613;DHT22;22054;51.646;7.078;2023-04-01T02:24:17;9.40;99.90
35613;DHT22;22054;51.646;7.078;2023-04-01T02:26:44;9.40;99.90
35613;DHT22;22054;51.646;7.078;2023-04-01T02:29:11;9.40;99.90
35613;DHT22;22054;51.646;7.078;2023-04-01T02:31:38;9.50;99.90
35613;DHT22;22054;51.646;7.078;2023-04-01T02:34:04;9.50;99.90
35613;DHT22;22054;51.646;7.078;2023-04-01T02:36:30;9.40;99.90
35613;DHT22;22054;51.646;7.078;2023-04-01T02:38:57;9.40;99.90
35613;DHT22;22054;51.646;7.078;2023-04-01T02:41:27;9.50;99.90
35613;DHT22;22054;51.646;7.078;2023-04-01T02:43:53;9.50;99.90
35613;DHT22;22054;51.646;7.078;2023-04-01T02:46:20;9.50;99.90
35613;DHT22;22054;51.646;7.078;2023-04-01T02:48:45;9.60;99.90
35613;DHT22;22054;51.646;7.078;2023-04-01T02:51:11;9.60;99.90
35613;DHT22;22054;51.646;7.078;2023-04-01T02:53:37;9.60;99.90
35613;DHT22;22054;51.646;7.078;2023-04-01T02:56:03;9.60;99.90
35613;DHT22;22054;51.646;7.078;2023-04-01T02:58:28;9.60;99.90
35613;DHT22;22054;51.646;7.078;2023-04-01T03:00:54;9.60;99.90
35613;DHT22;22054;51.646;7.078;2023-04-01T03:03:20;9.50;99.90
35613;DHT22;22054;51.646;7.078;2023-04-01T03:05:46;9.50;99.90
35613;DHT22;22054;51.646;7.078;2023-04-01T03:08:11;9.80;99.90
35613;DHT22;22054;51.646;7.078;2023-04-01T03:10:37;9.60;99.90
35613;DHT22;22054;51.646;7.078;2023-04-01T03:13:03;9.50;99.90
35613;DHT22;22054;51.646;7.078;2023-04-01T03:15:29;9.60;99.90
35613;DHT22;22054;51.646;7.078;2023-04-01T03:17:55;9.60;99.90
35613;DHT22;22054;51.646;7.078;2023-04-01T03:20:20;9.80;99.90
35613;DHT22;22054;51.646;7.078;2023-04-01T03:22:46;9.60;99.90
35613;DHT22;22054;51.646;7.078;2023-04-01T03:25:12;9.60;99.90
35613;DHT22;22054;51.646;7.078;2023-04-01T03:27:38;9.50;99.90
35613;DHT22;22054;51.646;7.078;2023-04-01T03:30:05;9.50;99.90
35613;DHT22;22054;51.646;7.078;2023-04-01T03:32:34;9.50;99.90
35613;DHT22;22054;51.646;7.078;2023-04-01T03:35:00;9.50;99.90
35613;DHT22;22054;51.646;7.078;2023-04-01T03:37:26;9.60;99.90
35613;DHT22;22054;51.646;7.078;2023-04-01T03:39:51;9.60;99.90
35613;DHT22;22054;51.646;7.078;2023-04-01T03:42:17;9.60;99.90
35613;DHT22;22054;51.646;7.078;2023-04-01T03:44:43;9.60;99.90
35613;DHT22;22054;51.646;7.078;2023-04-01T03:47:08;9.60;99.90
35613;DHT22;22054;51.646;7.078;2023-04-01T03:49:35;9.70;99.90
35613;DHT22;22054;51.646;7.078;2023-04-01T03:52:00;9.70;99.90
35613;DHT22;22054;51.646;7.078;2023-04-01T03:54:26;9.70;99.90
35613;DHT22;22054;51.646;7.078;2023-04-01T03:56:52;9.70;99.90
35613;DHT22;22054;51.646;7.078;2023-04-01T03:59:18;9.70;99.90
35613;DHT22;22054;51.646;7.078;2023-04-01T04:01:43;9.70;99.90
35613;DHT22;22054;51.646;7.078;2023-04-01T04:04:11;9.70;99.90
35613;DHT22;22054;51.646;7.078;2023-04-01T04:06:40;9.80;99.90
35613;DHT22;22054;51.646;7.078;2023-04-01T04:09:07;9.80;99.90
35613;DHT22;22054;51.646;7.078;2023-04-01T04:11:32;9.80;99.90
35613;DHT22;22054;51.646;7.078;2023-04-01T04:13:58;9.70;99.90
35613;DHT22;22054;51.646;7.078;2023-04-01T04:16:24;9.70;99.90
35613;DHT22;22054;51.646;7.078;2023-04-01T04:18:50;9.70;99.90
35613;DHT22;22054;51.646;7.078;2023-04-01T04:21:17;9.70;99.90
35613;DHT22;22054;51.646;7.078;2023-04-01T04:23:42;9.70;99.90
35613;DHT22;22054;51.646;7.078;2023-04-01T04:26:11;9.70;99.90
35613;DHT22;22054;51.646;7.078;2023-04-01T04:28:39;9.70;99.90
35613;DHT22;22054;51.646;7.078;2023-04-01T04:31:05;10.00;99.90
35613;DHT22;22054;51.646;7.078;2023-04-01T04:33:32;9.70;99.90
35613;DHT22;22054;51.646;7.078;2023-04-01T04:35:59;9.70;99.90
35613;DHT22;22054;51.646;7.078;2023-04-01T04:38:26;9.70;99.90
35613;DHT22;22054;51.646;7.078;2023-04-01T04:40:52;9.70;99.90
35613;DHT22;22054;51.646;7.078;2023-04-01T04:43:18;9.70;99.90
35613;DHT22;22054;51.646;7.078;2023-04-01T04:45:44;9.70;99.90
35613;DHT22;22054;51.646;7.078;2023-04-01T04:48:12;9.70;99.90
35613;DHT22;22054;51.646;7.078;2023-04-01T04:50:44;9.60;99.90
35613;DHT22;22054;51.646;7.078;2023-04-01T04:53:15;9.40;99.90
35613;DHT22;22054;51.646;7.078;2023-04-01T04:55:45;9.70;99.90
35613;DHT22;22054;51.646;7.078;2023-04-01T04:58:12;9.70;99.90
35613;DHT22;22054;51.646;7.078;2023-04-01T05:00:37;9.70;99.90
35613;DHT22;22054;51.646;7.078;2023-04-01T05:03:03;9.80;99.90
35613;DHT22;22054;51.646;7.078;2023-04-01T05:05:29;9.70;99.90
35613;DHT22;22054;51.646;7.078;2023-04-01T05:07:55;9.70;99.90
35613;DHT22;22054;51.646;7.078;2023-04-01T05:10:20;9.70;99.90
35613;DHT22;22054;51.646;7.078;2023-04-01T05:12:46;9.70;99.90
35613;DHT22;22054;51.646;7.078;2023-04-01T05:15:12;9.70;99.90
35613;DHT22;22054;51.646;7.078;2023-04-01T05:17:38;9.70;99.90
35613;DHT22;22054;51.646;7.078;2023-04-01T05:20:04;9.70;99.90
35613;DHT22;22054;51.646;7.078;2023-04-01T05:22:31;9.80;99.90
35613;DHT22;22054;51.646;7.078;2023-04-01T05:24:56;9.80;99.90
35613;DHT22;22054;51.646;7.078;2023-04-01T05:27:22;9.80;99.90
35613;DHT22;22054;51.646;7.078;2023-04-01T05:29:48;9.80;99.90
35613;DHT22;22054;51.646;7.078;2023-04-01T05:32:14;9.80;99.90
35613;DHT22;22054;51.646;7.078;2023-04-01T05:34:40;9.80;99.90
35613;DHT22;22054;51.646;7.078;2023-04-01T05:37:06;9.80;99.90
35613;DHT22;22054;51.646;7.078;2023-04-01T05:39:38;9.80;99.90
35613;DHT22;22054;51.646;7.078;2023-04-01T05:42:08;9.80;99.90
35613;DHT22;22054;51.646;7.078;2023-04-01T05:44:34;9.80;99.90
35613;DHT22;22054;51.646;7.078;2023-04-01T05:47:01;9.80;99.90
35613;DHT22;22054;51.646;7.078;2023-04-01T05:49:27;9.80;99.90
35613;DHT22;22054;51.646;7.078;2023-04-01T05:51:53;9.90;99.90
35613;DHT22;22054;51.646;7.078;2023-04-01T05:54:19;9.90;99.90
35613;DHT22;22054;51.646;7.078;2023-04-01T05:56:45;9.60;99.90
35613;DHT22;22054;51.646;7.078;2023-04-01T05:59:12;9.90;99.90
35613;DHT22;22054;51.646;7.078;2023-04-01T06:01:38;9.80;99.90
35613;DHT22;22054;51.646;7.078;2023-04-01T06:04:04;9.80;99.90
35613;DHT22;22054;51.646;7.078;2023-04-01T06:06:31;9.80;99.90
35613;DHT22;22054;51.646;7.078;2023-04-01T06:09:14;9.80;99.90
35613;DHT22;22054;51.646;7.078;2023-04-01T06:15:12;9.90;99.90
35613;DHT22;22054;51.646;7.078;2023-04-01T06:17:56;9.80;99.90
35613;DHT22;22054;51.646;7.078;2023-04-01T06:21:04;9.90;99.90
35613;DHT22;22054;51.646;7.078;2023-04-01T06:27:07;9.80;99.90
35613;DHT22;22054;51.646;7.078;2023-04-01T06:32:51;9.90;99.90
35613;DHT22;22054;51.646;7.078;2023-04-01T06:45:04;9.80;99.90
35613;DHT22;22054;51.646;7.078;2023-04-01T06:51:29;9.80;99.90
35613;DHT22;22054;51.646;7.078;2023-04-01T06:54:16;9.80;99.90
35613;DHT22;22054;51.646;7.078;2023-04-01T06:56:45;9.90;99.90
35613;DHT22;22054;51.646;7.078;2023-04-01T06:59:22;9.80;99.90
35613;DHT22;22054;51.646;7.078;2023-04-01T07:01:59;9.80;99.90
35613;DHT22;22054;51.646;7.078;2023-04-01T07:04:33;9.80;99.90
35613;DHT22;22054;51.646;7.078;2023-04-01T07:09:57;9.80;99.90
35613;DHT22;22054;51.646;7.078;2023-04-01T07:14:58;9.80;99.90
35613;DHT22;22054;51.646;7.078;2023-04-01T07:17:30;9.90;99.90
35613;DHT22;22054;51.646;7.078;2023-04-01T07:22:51;9.90;99.90
35613;DHT22;22054;51.646;7.078;2023-04-01T07:25:24;9.90;99.90
35613;DHT22;22054;51.646;7.078;2023-04-01T07:27:54;10.00;99.90
35613;DHT22;22054;51.646;7.078;2023-04-01T07:30:24;9.90;99.90
35613;DHT22;22054;51.646;7.078;2023-04-01T07:33:23;10.00;99.90
35613;DHT22;22054;51.646;7.078;2023-04-01T07:36:08;10.00;99.90
35613;DHT22;22054;51.646;7.078;2023-04-01T07:38:47;10.00;99.90
35613;DHT22;22054;51.646;7.078;2023-04-01T07:45:05;10.10;99.90
35613;DHT22;22054;51.646;7.078;2023-04-01T07:47:41;10.10;99.90
35613;DHT22;22054;51.646;7.078;2023-04-01T07:50:28;10.00;99.90
35613;DHT22;22054;51.646;7.078;2023-04-01T07:53:08;10.00;99.90
35613;DHT22;22054;51.646;7.078;2023-04-01T07:56:01;10.10;99.90
35613;DHT22;22054;51.646;7.078;2023-04-01T08:04:05;10.00;99.90
35613;DHT22;22054;51.646;7.078;2023-04-01T08:06:45;9.90;99.90
35613;DHT22;22054;51.646;7.078;2023-04-01T08:09:33;10.00;99.90
35613;DHT22;22054;51.646;7.078;2023-04-01T08:14:52;10.20;99.90
35613;DHT22;22054;51.646;7.078;2023-04-01T08:26:03;10.30;99.90
35613;DHT22;22054;51.646;7.078;2023-04-01T08:34:24;10.40;99.90
35613;DHT22;22054;51.646;7.078;2023-04-01T08:36:57;10.50;99.90
35613;DHT22;22054;51.646;7.078;2023-04-01T08:39:32;10.30;99.90
35613;DHT22;22054;51.646;7.078;2023-04-01T08:45:34;10.40;99.90
35613;DHT22;22054;51.646;7.078;2023-04-01T08:56:53;10.30;99.90
35613;DHT22;22054;51.646;7.078;2023-04-01T09:05:47;10.40;99.90
35613;DHT22;22054;51.646;7.078;2023-04-01T09:14:28;10.50;99.90
35613;DHT22;22054;51.646;7.078;2023-04-01T09:17:13;10.40;99.90
35613;DHT22;22054;51.646;7.078;2023-04-01T09:19:58;10.40;99.90
35613;DHT22;22054;51.646;7.078;2023-04-01T09:25:53;10.60;99.90
35613;DHT22;22054;51.646;7.078;2023-04-01T09:35:19;10.70;99.90
35613;DHT22;22054;51.646;7.078;2023-04-01T09:41:16;10.70;99.90
35613;DHT22;22054;51.646;7.078;2023-04-01T09:44:02;10.70;99.90
35613;DHT22;22054;51.646;7.078;2023-04-01T09:46:37;10.70;99.90
35613;DHT22;22054;51.646;7.078;2023-04-01T10:01:42;10.70;99.90
35613;DHT22;22054;51.646;7.078;2023-04-01T10:07:02;10.80;99.90
35613;DHT22;22054;51.646;7.078;2023-04-01T10:09:58;10.80;99.90
35613;DHT22;22054;51.646;7.078;2023-04-01T10:15:52;10.90;99.90
35613;DHT22;22054;51.646;7.078;2023-04-01T10:22:11;10.90;99.90
35613;DHT22;22054;51.646;7.078;2023-04-01T10:25:44;11.00;99.90
35613;DHT22;22054;51.646;7.078;2023-04-01T10:31:35;11.10;99.90
35613;DHT22;22054;51.646;7.078;2023-04-01T10:37:03;10.90;99.90
35613;DHT22;22054;51.646;7.078;2023-04-01T10:49:24;11.00;99.90
35613;DHT22;22054;51.646;7.078;2023-04-01T10:56:39;11.10;99.90
35613;DHT22;22054;51.646;7.078;2023-04-01T10:59:43;11.10;99.90
35613;DHT22;22054;51.646;7.078;2023-04-01T11:06:43;11.10;99.90
35613;DHT22;22054;51.646;7.078;2023-04-01T11:12:41;11.00;99.90
35613;DHT22;22054;51.646;7.078;2023-04-01T11:19:02;11.10;99.90
35613;DHT22;22054;51.646;7.078;2023-04-01T11:22:01;11.10;99.90
35613;DHT22;22054;51.646;7.078;2023-04-01T11:25:04;11.30;99.90
35613;DHT22;22054;51.646;7.078;2023-04-01T11:28:27;11.20;99.90
35613;DHT22;22054;51.646;7.078;2023-04-01T11:37:12;11.10;99.90
35613;DHT22;22054;51.646;7.078;2023-04-01T11:40:11;11.00;99.90
35613;DHT22;22054;51.646;7.078;2023-04-01T11:43:16;11.10;99.90
35613;DHT22;22054;51.646;7.078;2023-04-01T11:45:59;11.00;99.90
35613;DHT22;22054;51.646;7.078;2023-04-01T11:48:56;11.00;99.90
35613;DHT22;22054;51.646;7.078;2023-04-01T11:52:13;11.00;99.90
35613;DHT22;22054;51.646;7.078;2023-04-01T11:58:08;10.90;99.90
35613;DHT22;22054;51.646;7.078;2023-04-01T12:07:40;11.00;99.90
35613;DHT22;22054;51.646;7.078;2023-04-01T12:10:14;11.10;99.90
35613;DHT22;22054;51.646;7.078;2023-04-01T12:12:54;11.10;99.90
35613;DHT22;22054;51.646;7.078;2023-04-01T12:15:59;11.10;99.90
35613;DHT22;22054;51.646;7.078;2023-04-01T12:30:56;11.10;99.90
35613;DHT22;22054;51.646;7.078;2023-04-01T12:33:43;11.10;99.90
35613;DHT22;22054;51.646;7.078;2023-04-01T12:36:35;11.10;99.90
35613;DHT22;22054;51.646;7.078;2023-04-01T12:39:33;11.10;99.90
35613;DHT22;22054;51.646;7.078;2023-04-01T12:47:55;11.00;99.90
35613;DHT22;22054;51.646;7.078;2023-04-01T12:56:56;10.80;99.90
35613;DHT22;22054;51.646;7.078;2023-04-01T13:05:22;10.90;99.90
35613;DHT22;22054;51.646;7.078;2023-04-01T13:11:34;10.70;99.90
35613;DHT22;22054;51.646;7.078;2023-04-01T13:14:20;10.80;99.90
35613;DHT22;22054;51.646;7.078;2023-04-01T13:19:58;10.90;99.90
35613;DHT22;22054;51.646;7.078;2023-04-01T13:22:50;10.80;99.90
35613;DHT22;22054;51.646;7.078;2023-04-01T13:25:29;10.80;99.90
35613;DHT22;22054;51.646;7.078;2023-04-01T13:28:20;10.90;99.90
35613;DHT22;22054;51.646;7.078;2023-04-01T13:31:23;10.90;99.90
35613;DHT22;22054;51.646;7.078;2023-04-01T13:34:39;10.80;99.90
35613;DHT22;22054;51.646;7.078;2023-04-01T13:48:57;10.80;99.90
35613;DHT22;22054;51.646;7.078;2023-04-01T14:01:15;10.90;99.90
35613;DHT22;22054;51.646;7.078;2023-04-01T14:07:16;10.90;99.90
35613;DHT22;22054;51.646;7.078;2023-04-01T14:18:30;11.10;99.90
35613;DHT22;22054;51.646;7.078;2023-04-01T14:24:14;11.20;99.90
35613;DHT22;22054;51.646;7.078;2023-04-01T14:30:35;11.30;99.90
35613;DHT22;22054;51.646;7.078;2023-04-01T14:38:50;11.60;99.90
35613;DHT22;22054;51.646;7.078;2023-04-01T14:41:47;11.60;99.90
35613;DHT22;22054;51.646;7.078;2023-04-01T14:48:39;11.50;99.90
35613;DHT22;22054;51.646;7.078;2023-04-01T14:59:08;11.10;99.90
35613;DHT22;22054;51.646;7.078;2023-04-01T15:01:43;11.10;99.90
35613;DHT22;22054;51.646;7.078;2023-04-01T15:16:20;11.10;99.90
35613;DHT22;22054;51.646;7.078;2023-04-01T15:19:16;11.10;99.90
35613;DHT22;22054;51.646;7.078;2023-04-01T15:25:04;11.20;99.90
35613;DHT22;22054;51.646;7.078;2023-04-01T15:27:42;11.20;99.90
35613;DHT22;22054;51.646;7.078;2023-04-01T15:30:16;11.40;99.90
35613;DHT22;22054;51.646;7.078;2023-04-01T15:35:46;11.30;99.90
35613;DHT22;22054;51.646;7.078;2023-04-01T15:38:29;11.20;99.90
35613;DHT22;22054;51.646;7.078;2023-04-01T15:41:14;11.20;99.90
35613;DHT22;22054;51.646;7.078;2023-04-01T15:43:59;11.20;99.90
35613;DHT22;22054;51.646;7.078;2023-04-01T15:46:44;11.20;99.90
35613;DHT22;22054;51.646;7.078;2023-04-01T15:49:43;11.20;99.90
35613;DHT22;22054;51.646;7.078;2023-04-01T15:52:34;11.20;99.90
35613;DHT22;22054;51.646;7.078;2023-04-01T15:58:41;11.10;99.90
35613;DHT22;22054;51.646;7.078;2023-04-01T16:16:10;11.20;99.90
35613;DHT22;22054;51.646;7.078;2023-04-01T16:22:22;11.20;99.90
35613;DHT22;22054;51.646;7.078;2023-04-01T16:24:59;11.10;99.90
35613;DHT22;22054;51.646;7.078;2023-04-01T16:27:40;11.10;99.90
35613;DHT22;22054;51.646;7.078;2023-04-01T16:30:37;11.20;99.90
35613;DHT22;22054;51.646;7.078;2023-04-01T16:36:36;11.20;99.90
35613;DHT22;22054;51.646;7.078;2023-04-01T16:45:34;11.20;99.90
35613;DHT22;22054;51.646;7.078;2023-04-01T16:48:11;11.20;99.90
35613;DHT22;22054;51.646;7.078;2023-04-01T16:51:02;11.10;99.90
35613;DHT22;22054;51.646;7.078;2023-04-01T16:56:38;11.20;99.90
35613;DHT22;22054;51.646;7.078;2023-04-01T16:59:21;11.20;99.90
35613;DHT22;22054;51.646;7.078;2023-04-01T17:04:45;11.20;99.90
35613;DHT22;22054;51.646;7.078;2023-04-01T17:07:25;11.20;99.90
35613;DHT22;22054;51.646;7.078;2023-04-01T17:16:11;11.20;99.90
35613;DHT22;22054;51.646;7.078;2023-04-01T17:22:25;11.20;99.90
35613;DHT22;22054;51.646;7.078;2023-04-01T17:27:40;11.10;99.90
35613;DHT22;22054;51.646;7.078;2023-04-01T17:30:48;11.10;99.90
35613;DHT22;22054;51.646;7.078;2023-04-01T17:36:59;11.10;99.90
35613;DHT22;22054;51.646;7.078;2023-04-01T17:40:26;11.00;99.90
35613;DHT22;22054;51.646;7.078;2023-04-01T17:52:29;10.90;99.90
35613;DHT22;22054;51.646;7.078;2023-04-01T17:55:05;11.00;99.90
35613;DHT22;22054;51.646;7.078;2023-04-01T18:00:51;11.00;99.90
35613;DHT22;22054;51.646;7.078;2023-04-01T18:04:09;11.00;99.90
35613;DHT22;22054;51.646;7.078;2023-04-01T18:22:21;11.10;99.90
35613;DHT22;22054;51.646;7.078;2023-04-01T18:25:01;11.10;99.90
35613;DHT22;22054;51.646;7.078;2023-04-01T18:30:37;11.10;99.90
35613;DHT22;22054;51.646;7.078;2023-04-01T18:33:09;11.10;99.90
35613;DHT22;22054;51.646;7.078;2023-04-01T18:39:18;11.00;99.90
35613;DHT22;22054;51.646;7.078;2023-04-01T18:44:51;11.00;99.90
35613;DHT22;22054;51.646;7.078;2023-04-01T18:47:43;11.00;99.90
35613;DHT22;22054;51.646;7.078;2023-04-01T18:50:56;11.00;99.90
35613;DHT22;22054;51.646;7.078;2023-04-01T18:59:15;10.80;99.90
35613;DHT22;22054;51.646;7.078;2023-04-01T19:04:31;10.70;99.90
35613;DHT22;22054;51.646;7.078;2023-04-01T19:07:40;10.70;99.90
35613;DHT22;22054;51.646;7.078;2023-04-01T19:10:37;10.60;99.90
35613;DHT22;22054;51.646;7.078;2023-04-01T19:16:21;10.50;99.90
35613;DHT22;22054;51.646;7.078;2023-04-01T19:25:12;10.40;99.90
35613;DHT22;22054;51.646;7.078;2023-04-01T19:27:50;10.40;99.90
35613;DHT22;22054;51.646;7.078;2023-04-01T19:30:42;10.40;99.90
35613;DHT22;22054;51.646;7.078;2023-04-01T19:33:22;10.30;99.90
35613;DHT22;22054;51.646;7.078;2023-04-01T20:02:39;9.80;99.90
35613;DHT22;22054;51.646;7.078;2023-04-01T20:05:35;9.80;99.90
35613;DHT22;22054;51.646;7.078;2023-04-01T20:08:51;9.80;99.90
35613;DHT22;22054;51.646;7.078;2023-04-01T20:14:38;9.80;99.90
35613;DHT22;22054;51.646;7.078;2023-04-01T20:22:04;9.70;99.90
35613;DHT22;22054;51.646;7.078;2023-04-01T20:24:41;9.60;99.90
35613;DHT22;22054;51.646;7.078;2023-04-01T20:27:22;9.60;99.90
35613;DHT22;22054;51.646;7.078;2023-04-01T20:30:00;9.50;99.90
35613;DHT22;22054;51.646;7.078;2023-04-01T20:35:22;9.40;99.90
35613;DHT22;22054;51.646;7.078;2023-04-01T20:41:07;9.40;99.90
35613;DHT22;22054;51.646;7.078;2023-04-01T20:46:48;9.30;99.90
35613;DHT22;22054;51.646;7.078;2023-04-01T20:49:41;9.30;99.90
35613;DHT22;22054;51.646;7.078;2023-04-01T20:52:56;9.20;99.90
35613;DHT22;22054;51.646;7.078;2023-04-01T20:58:35;9.20;99.90
35613;DHT22;22054;51.646;7.078;2023-04-01T21:03:59;9.10;99.90
35613;DHT22;22054;51.646;7.078;2023-04-01T21:15:21;8.90;99.90
35613;DHT22;22054;51.646;7.078;2023-04-01T21:18:03;8.90;99.90
35613;DHT22;22054;51.646;7.078;2023-04-01T21:21:08;8.90;99.90
35613;DHT22;22054;51.646;7.078;2023-04-01T21:23:59;8.90;99.90
35613;DHT22;22054;51.646;7.078;2023-04-01T21:32:25;8.90;99.90
35613;DHT22;22054;51.646;7.078;2023-04-01T21:59:02;8.60;99.90
35613;DHT22;22054;51.646;7.078;2023-04-01T22:02:09;8.50;99.90
35613;DHT22;22054;51.646;7.078;2023-04-01T22:05:11;8.50;99.90
35613;DHT22;22054;51.646;7.078;2023-04-01T22:08:23;8.40;99.90
35613;DHT22;22054;51.646;7.078;2023-04-01T22:17:46;8.40;99.90
35613;DHT22;22054;51.646;7.078;2023-04-01T22:20:40;8.30;99.90
35613;DHT22;22054;51.646;7.078;2023-04-01T22:26:09;8.30;99.90
35613;DHT22;22054;51.646;7.078;2023-04-01T22:31:55;8.30;99.90
35613;DHT22;22054;51.646;7.078;2023-04-01T22:34:37;8.30;99.90
35613;DHT22;22054;51.646;7.078;2023-04-01T22:43:16;8.10;99.90
35613;DHT22;22054;51.646;7.078;2023-04-01T22:46:17;8.20;99.90
35613;DHT22;22054;51.646;7.078;2023-04-01T22:48:52;8.20;99.90
35613;DHT22;22054;51.646;7.078;2023-04-01T22:51:57;8.10;99.90
35613;DHT22;22054;51.646;7.078;2023-04-01T22:54:52;8.10;99.90
35613;DHT22;22054;51.646;7.078;2023-04-01T23:03:15;7.90;99.90
35613;DHT22;22054;51.646;7.078;2023-04-01T23:05:53;7.90;99.90
35613;DHT22;22054;51.646;7.078;2023-04-01T23:11:18;7.80;99.90
35613;DHT22;22054;51.646;7.078;2023-04-01T23:14:03;7.80;99.90
35613;DHT22;22054;51.646;7.078;2023-04-01T23:17:05;7.80;99.90
35613;DHT22;22054;51.646;7.078;2023-04-01T23:19:50;7.80;99.90
35613;DHT22;22054;51.646;7.078;2023-04-01T23:22:34;7.80;99.90
35613;DHT22;22054;51.646;7.078;2023-04-01T23:28:53;7.90;99.90
35613;DHT22;22054;51.646;7.078;2023-04-01T23:31:34;7.80;99.90
35613;DHT22;22054;51.646;7.078;2023-04-01T23:36:50;7.70;99.90
35613;DHT22;22054;51.646;7.078;2023-04-01T23:39:43;7.70;99.90
35613;DHT22;22054;51.646;7.078;2023-04-01T23:42:32;7.70;99.90
35613;DHT22;22054;51.646;7.078;2023-04-01T23:45:13;7.70;99.90
35613;DHT22;22054;51.646;7.078;2023-04-01T23:47:42;7.60;99.90
35613;DHT22;22054;51.646;7.078;2023-04-01T23:50:16;7.60;99.90
35613;DHT22;22054;51.646;7.078;2023-04-01T23:52:47;7.50;99.90
35613;DHT22;22054;51.646;7.078;2023-04-01T23:55:29;7.60;99.90
